createdAt,value
2017-10-28T00:00:26.596Z,13.9
2017-10-28T00:01:29.328Z,13.9
2017-10-28T00:02:31.691Z,13.8
2017-10-28T00:03:34.074Z,13.8
2017-10-28T00:04:36.449Z,13.8
2017-10-28T00:05:39.161Z,13.8
2017-10-28T00:06:41.535Z,13.8
2017-10-28T00:07:43.903Z,13.8
2017-10-28T00:08:46.266Z,13.8
2017-10-28T00:09:48.639Z,13.8
2017-10-28T00:10:51.024Z,13.8
2017-10-28T00:11:53.390Z,13.8
2017-10-28T00:12:55.767Z,13.8
2017-10-28T00:13:58.145Z,13.8
2017-10-28T00:15:00.519Z,13.8
2017-10-28T00:16:02.895Z,13.8
2017-10-28T00:17:05.266Z,13.8
2017-10-28T00:18:07.624Z,13.8
2017-10-28T00:19:10.003Z,13.8
2017-10-28T00:20:12.723Z,13.8
2017-10-28T00:21:15.091Z,13.8
2017-10-28T00:22:17.467Z,13.8
2017-10-28T00:23:19.839Z,13.9
2017-10-28T00:24:22.211Z,13.9
2017-10-28T00:25:24.587Z,13.9
2017-10-28T00:26:27.311Z,13.9
2017-10-28T00:27:29.683Z,13.8
2017-10-28T00:28:32.051Z,13.8
2017-10-28T00:29:34.432Z,13.8
2017-10-28T00:30:36.793Z,13.8
2017-10-28T00:31:39.171Z,13.8
2017-10-28T00:32:41.537Z,13.8
2017-10-28T00:33:43.908Z,13.8
2017-10-28T00:34:46.276Z,13.7
2017-10-28T00:35:49.033Z,13.7
2017-10-28T00:36:51.400Z,13.7
2017-10-28T00:37:53.783Z,13.7
2017-10-28T00:38:56.156Z,13.7
2017-10-28T00:39:58.526Z,13.7
2017-10-28T00:41:00.900Z,13.7
2017-10-28T00:42:03.283Z,13.7
2017-10-28T00:43:05.657Z,13.7
2017-10-28T00:44:08.020Z,13.7
2017-10-28T00:45:10.761Z,13.7
2017-10-28T00:46:13.127Z,13.7
2017-10-28T00:47:15.496Z,13.7
2017-10-28T00:48:18.217Z,13.7
2017-10-28T00:49:20.586Z,13.7
2017-10-28T00:50:22.958Z,13.8
2017-10-28T00:51:25.349Z,13.8
2017-10-28T00:52:27.723Z,13.8
2017-10-28T00:53:30.097Z,13.8
2017-10-28T00:54:32.465Z,13.8
2017-10-28T00:55:35.189Z,13.8
2017-10-28T00:56:37.555Z,13.8
2017-10-28T00:57:40.273Z,13.8
2017-10-28T00:58:42.651Z,13.8
2017-10-28T00:59:45.023Z,13.8
2017-10-28T01:00:47.382Z,13.8
2017-10-28T01:01:49.761Z,13.8
2017-10-28T01:02:52.142Z,13.8
2017-10-28T01:03:54.506Z,13.8
2017-10-28T01:04:56.878Z,13.8
2017-10-28T01:05:59.255Z,13.9
2017-10-28T01:07:01.628Z,13.8
2017-10-28T01:08:04.008Z,13.8
2017-10-28T01:09:06.376Z,13.8
2017-10-28T01:10:08.761Z,13.9
2017-10-28T01:11:11.138Z,13.9
2017-10-28T01:12:13.506Z,13.9
2017-10-28T01:13:15.878Z,13.9
2017-10-28T01:14:18.251Z,13.9
2017-10-28T01:15:20.623Z,13.8
2017-10-28T01:16:22.999Z,13.9
2017-10-28T01:17:25.361Z,13.9
2017-10-28T01:18:27.738Z,13.9
2017-10-28T01:19:30.458Z,13.9
2017-10-28T01:20:33.179Z,13.9
2017-10-28T01:21:35.557Z,13.9
2017-10-28T01:22:37.932Z,13.9
2017-10-28T01:23:40.649Z,13.9
2017-10-28T01:24:43.023Z,13.9
2017-10-28T01:25:45.400Z,13.9
2017-10-28T01:26:47.762Z,13.9
2017-10-28T01:27:50.129Z,13.9
2017-10-28T01:28:52.513Z,13.9
2017-10-28T01:29:54.882Z,13.9
2017-10-28T01:30:57.268Z,13.9
2017-10-28T01:31:59.977Z,13.9
2017-10-28T01:33:02.352Z,13.9
2017-10-28T01:34:05.095Z,13.9
2017-10-28T01:35:07.820Z,13.9
2017-10-28T01:36:10.540Z,14
2017-10-28T01:37:12.922Z,13.9
2017-10-28T01:38:15.640Z,14
2017-10-28T01:39:18.007Z,13.9
2017-10-28T01:40:20.378Z,14
2017-10-28T01:41:22.741Z,14
2017-10-28T01:42:25.118Z,13.9
2017-10-28T01:43:27.491Z,13.9
2017-10-28T01:44:29.858Z,13.9
2017-10-28T01:45:32.241Z,13.9
2017-10-28T01:46:34.614Z,13.9
2017-10-28T01:47:36.989Z,13.9
2017-10-28T01:48:39.366Z,14
2017-10-28T01:49:41.733Z,14
2017-10-28T01:50:44.110Z,14
2017-10-28T01:51:46.836Z,14
2017-10-28T01:52:49.205Z,14
2017-10-28T01:53:51.576Z,14
2017-10-28T01:54:53.953Z,14
2017-10-28T01:55:57.036Z,14
2017-10-28T01:56:59.416Z,14
2017-10-28T01:58:01.785Z,14
2017-10-28T01:59:04.153Z,14
2017-10-28T02:00:06.536Z,14
2017-10-28T02:01:09.257Z,14
2017-10-28T02:02:11.630Z,14
2017-10-28T02:03:14.001Z,14
2017-10-28T02:04:16.370Z,14
2017-10-28T02:05:18.741Z,14
2017-10-28T02:06:21.113Z,14
2017-10-28T02:07:23.508Z,14
2017-10-28T02:08:25.880Z,14
2017-10-28T02:09:28.249Z,14
2017-10-28T02:10:30.617Z,14
2017-10-28T02:11:32.982Z,14
2017-10-28T02:12:35.363Z,14
2017-10-28T02:13:38.083Z,14
2017-10-28T02:14:40.448Z,14
2017-10-28T02:15:42.824Z,14
2017-10-28T02:16:45.206Z,14
2017-10-28T02:17:47.573Z,14
2017-10-28T02:18:49.947Z,13.9
2017-10-28T02:19:52.323Z,14
2017-10-28T02:20:54.688Z,14
2017-10-28T02:21:57.072Z,14
2017-10-28T02:22:59.444Z,13.9
2017-10-28T02:24:01.805Z,14
2017-10-28T02:25:04.184Z,14
2017-10-28T02:26:06.552Z,14
2017-10-28T02:27:09.281Z,14
2017-10-28T02:28:11.648Z,14
2017-10-28T02:29:14.018Z,14
2017-10-28T02:30:16.390Z,14
2017-10-28T02:31:18.780Z,14
2017-10-28T02:32:21.146Z,14
2017-10-28T02:33:23.520Z,14
2017-10-28T02:34:25.892Z,14
2017-10-28T02:35:28.260Z,14
2017-10-28T02:36:30.638Z,13.9
2017-10-28T02:37:33.710Z,13.9
2017-10-28T02:38:36.083Z,13.9
2017-10-28T02:39:38.454Z,13.9
2017-10-28T02:40:40.817Z,13.9
2017-10-28T02:41:43.189Z,13.9
2017-10-28T02:42:45.581Z,13.9
2017-10-28T02:43:47.946Z,13.9
2017-10-28T02:44:50.329Z,13.9
2017-10-28T02:45:52.696Z,13.8
2017-10-28T02:46:55.065Z,13.8
2017-10-28T02:47:57.441Z,13.8
2017-10-28T02:48:59.820Z,13.8
2017-10-28T02:50:02.175Z,13.8
2017-10-28T02:51:04.901Z,13.8
2017-10-28T02:52:07.276Z,13.8
2017-10-28T02:53:09.652Z,13.8
2017-10-28T02:54:12.382Z,13.8
2017-10-28T02:55:14.744Z,13.8
2017-10-28T02:56:17.116Z,13.8
2017-10-28T02:57:19.500Z,13.8
2017-10-28T02:58:22.232Z,13.8
2017-10-28T02:59:24.967Z,13.8
2017-10-28T03:00:27.340Z,13.8
2017-10-28T03:01:29.719Z,13.8
2017-10-28T03:02:32.097Z,13.8
2017-10-28T03:03:34.472Z,13.8
2017-10-28T03:04:36.827Z,13.8
2017-10-28T03:05:39.558Z,13.8
2017-10-28T03:06:42.285Z,13.8
2017-10-28T03:07:44.665Z,13.8
2017-10-28T03:08:47.034Z,13.8
2017-10-28T03:09:49.404Z,13.8
2017-10-28T03:10:51.776Z,13.8
2017-10-28T03:11:54.145Z,13.8
2017-10-28T03:12:56.516Z,13.8
2017-10-28T03:13:58.888Z,13.8
2017-10-28T03:15:01.256Z,13.8
2017-10-28T03:16:03.632Z,13.8
2017-10-28T03:17:06.358Z,13.8
2017-10-28T03:18:08.724Z,13.8
2017-10-28T03:19:11.102Z,13.8
2017-10-28T03:20:13.476Z,13.8
2017-10-28T03:21:15.838Z,13.7
2017-10-28T03:22:18.218Z,13.7
2017-10-28T03:23:20.930Z,13.7
2017-10-28T03:24:23.301Z,13.7
2017-10-28T03:25:25.676Z,13.7
2017-10-28T03:26:28.048Z,13.7
2017-10-28T03:27:30.422Z,13.7
2017-10-28T03:28:32.793Z,13.7
2017-10-28T03:29:35.159Z,13.7
2017-10-28T03:30:37.535Z,13.7
2017-10-28T03:31:39.908Z,13.7
2017-10-28T03:32:42.273Z,13.7
2017-10-28T03:33:44.995Z,13.6
2017-10-28T03:34:47.386Z,13.6
2017-10-28T03:35:49.736Z,13.6
2017-10-28T03:36:52.105Z,13.6
2017-10-28T03:37:54.473Z,13.6
2017-10-28T03:38:56.849Z,13.6
2017-10-28T03:39:59.221Z,13.6
2017-10-28T03:41:01.952Z,13.6
2017-10-28T03:42:04.325Z,13.6
2017-10-28T03:43:06.702Z,13.5
2017-10-28T03:44:09.073Z,13.6
2017-10-28T03:45:11.442Z,13.6
2017-10-28T03:46:13.816Z,13.6
2017-10-28T03:47:16.185Z,13.6
2017-10-28T03:48:18.552Z,13.6
2017-10-28T03:49:20.936Z,13.6
2017-10-28T03:50:23.655Z,13.6
2017-10-28T03:51:26.021Z,13.6
2017-10-28T03:52:28.390Z,13.6
2017-10-28T03:53:30.766Z,13.6
2017-10-28T03:54:33.144Z,13.6
2017-10-28T03:55:35.519Z,13.6
2017-10-28T03:56:37.880Z,13.6
2017-10-28T03:57:40.609Z,13.6
2017-10-28T03:58:42.997Z,13.6
2017-10-28T03:59:45.351Z,13.6
2017-10-28T04:00:47.724Z,13.6
2017-10-28T04:01:50.445Z,13.6
2017-10-28T04:02:52.813Z,13.6
2017-10-28T04:03:55.195Z,13.6
2017-10-28T04:04:57.563Z,13.6
2017-10-28T04:05:59.929Z,13.6
2017-10-28T04:07:02.299Z,13.6
2017-10-28T04:08:04.675Z,13.6
2017-10-28T04:09:07.043Z,13.6
2017-10-28T04:10:09.416Z,13.6
2017-10-28T04:11:11.791Z,13.6
2017-10-28T04:12:15.229Z,13.6
2017-10-28T04:13:17.615Z,13.6
2017-10-28T04:14:20.337Z,13.6
2017-10-28T04:15:22.699Z,13.7
2017-10-28T04:16:25.070Z,13.7
2017-10-28T04:17:27.440Z,13.7
2017-10-28T04:18:29.822Z,13.7
2017-10-28T04:19:32.548Z,13.6
2017-10-28T04:20:34.911Z,13.6
2017-10-28T04:21:37.280Z,13.6
2017-10-28T04:22:40.015Z,13.7
2017-10-28T04:23:42.387Z,13.7
2017-10-28T04:24:44.756Z,13.7
2017-10-28T04:25:47.123Z,13.7
2017-10-28T04:26:49.487Z,13.7
2017-10-28T04:27:51.869Z,13.7
2017-10-28T04:28:54.242Z,13.6
2017-10-28T04:29:56.605Z,13.7
2017-10-28T04:30:58.980Z,13.7
2017-10-28T04:32:01.701Z,13.6
2017-10-28T04:33:04.073Z,13.7
2017-10-28T04:34:06.447Z,13.7
2017-10-28T04:35:09.175Z,13.7
2017-10-28T04:36:11.904Z,13.7
2017-10-28T04:37:14.619Z,13.7
2017-10-28T04:38:16.992Z,13.7
2017-10-28T04:39:19.372Z,13.7
2017-10-28T04:40:21.745Z,13.7
2017-10-28T04:41:24.465Z,13.7
2017-10-28T04:42:26.843Z,13.7
2017-10-28T04:43:29.218Z,13.7
2017-10-28T04:44:31.588Z,13.7
2017-10-28T04:45:33.963Z,13.7
2017-10-28T04:46:36.326Z,13.7
2017-10-28T04:47:39.051Z,13.7
2017-10-28T04:48:41.785Z,13.7
2017-10-28T04:49:44.160Z,13.7
2017-10-28T04:50:46.539Z,13.7
2017-10-28T04:51:48.901Z,13.7
2017-10-28T04:52:51.271Z,13.7
2017-10-28T04:53:53.660Z,13.7
2017-10-28T04:54:56.031Z,13.7
2017-10-28T04:55:58.400Z,13.7
2017-10-28T04:57:01.196Z,13.7
2017-10-28T04:58:03.566Z,13.7
2017-10-28T04:59:05.948Z,13.7
2017-10-28T05:00:08.322Z,13.7
2017-10-28T05:01:10.695Z,13.7
2017-10-28T05:02:13.065Z,13.7
2017-10-28T05:03:15.446Z,13.7
2017-10-28T05:04:17.819Z,13.7
2017-10-28T05:05:20.887Z,13.7
2017-10-28T05:06:23.260Z,13.7
2017-10-28T05:07:25.646Z,13.6
2017-10-28T05:08:28.024Z,13.7
2017-10-28T05:09:30.397Z,13.6
2017-10-28T05:10:32.779Z,13.6
2017-10-28T05:11:35.144Z,13.7
2017-10-28T05:12:37.533Z,13.6
2017-10-28T05:13:39.899Z,13.6
2017-10-28T05:14:42.280Z,13.6
2017-10-28T05:15:44.644Z,13.6
2017-10-28T05:16:47.017Z,13.6
2017-10-28T05:17:49.381Z,13.6
2017-10-28T05:18:52.118Z,13.6
2017-10-28T05:19:54.479Z,13.6
2017-10-28T05:20:56.855Z,13.6
2017-10-28T05:21:59.233Z,13.6
2017-10-28T05:23:01.950Z,13.6
2017-10-28T05:24:04.322Z,13.6
2017-10-28T05:25:07.059Z,13.6
2017-10-28T05:26:09.426Z,13.6
2017-10-28T05:27:11.814Z,13.6
2017-10-28T05:28:14.182Z,13.6
2017-10-28T05:29:16.562Z,13.6
2017-10-28T05:30:18.940Z,13.6
2017-10-28T05:31:21.316Z,13.6
2017-10-28T05:32:23.687Z,13.7
2017-10-28T05:33:26.405Z,13.6
2017-10-28T05:34:28.772Z,13.6
2017-10-28T05:35:31.149Z,13.6
2017-10-28T05:36:33.507Z,13.6
2017-10-28T05:37:35.880Z,13.6
2017-10-28T05:38:38.251Z,13.6
2017-10-28T05:39:40.622Z,13.7
2017-10-28T05:40:42.992Z,13.6
2017-10-28T05:41:45.371Z,13.7
2017-10-28T05:42:48.861Z,13.7
2017-10-28T05:43:51.327Z,13.7
2017-10-28T05:44:53.691Z,13.7
2017-10-28T05:45:56.068Z,13.7
2017-10-28T05:46:58.444Z,13.7
2017-10-28T05:48:00.812Z,13.7
2017-10-28T05:49:03.539Z,13.7
2017-10-28T05:50:05.935Z,13.7
2017-10-28T05:51:08.322Z,13.7
2017-10-28T05:52:10.695Z,13.7
2017-10-28T05:53:13.081Z,13.7
2017-10-28T05:54:15.459Z,13.7
2017-10-28T05:55:17.822Z,13.7
2017-10-28T05:56:20.199Z,13.7
2017-10-28T05:57:22.919Z,13.7
2017-10-28T05:58:25.299Z,13.7
2017-10-28T05:59:27.676Z,13.7
2017-10-28T06:00:30.058Z,13.7
2017-10-28T06:01:32.702Z,13.7
2017-10-28T06:02:35.434Z,13.7
2017-10-28T06:03:37.801Z,13.7
2017-10-28T06:04:40.173Z,13.7
2017-10-28T06:05:42.554Z,13.7
2017-10-28T06:06:45.278Z,13.7
2017-10-28T06:07:47.649Z,13.7
2017-10-28T06:08:50.365Z,13.7
2017-10-28T06:09:52.750Z,13.7
2017-10-28T06:10:55.477Z,13.7
2017-10-28T06:11:57.850Z,13.7
2017-10-28T06:13:00.640Z,13.7
2017-10-28T06:14:05.009Z,13.6
2017-10-28T06:15:07.395Z,13.6
2017-10-28T06:16:09.763Z,13.6
2017-10-28T06:17:12.122Z,13.6
2017-10-28T06:18:14.513Z,13.6
2017-10-28T06:19:16.870Z,13.6
2017-10-28T06:20:19.248Z,13.6
2017-10-28T06:21:21.613Z,13.6
2017-10-28T06:22:24.213Z,13.6
2017-10-28T06:23:26.587Z,13.7
2017-10-28T06:24:28.990Z,13.6
2017-10-28T06:25:31.349Z,13.7
2017-10-28T06:26:33.729Z,13.7
2017-10-28T06:27:36.455Z,13.6
2017-10-28T06:28:38.847Z,13.7
2017-10-28T06:29:41.244Z,13.7
2017-10-28T06:30:43.615Z,13.7
2017-10-28T06:31:45.988Z,13.7
2017-10-28T06:32:48.372Z,13.7
2017-10-28T06:33:50.753Z,13.7
2017-10-28T06:34:53.171Z,13.7
2017-10-28T06:35:55.703Z,13.7
2017-10-28T06:36:58.080Z,13.7
2017-10-28T06:38:00.459Z,13.7
2017-10-28T06:39:02.969Z,13.7
2017-10-28T06:40:05.701Z,13.7
2017-10-28T06:41:08.195Z,13.7
2017-10-28T06:42:10.568Z,13.7
2017-10-28T06:43:13.006Z,13.7
2017-10-28T06:44:15.364Z,13.7
2017-10-28T06:45:17.978Z,13.8
2017-10-28T06:46:20.354Z,13.8
2017-10-28T06:47:22.737Z,13.8
2017-10-28T06:48:25.207Z,13.8
2017-10-28T06:49:27.577Z,13.8
2017-10-28T06:50:30.066Z,13.8
2017-10-28T06:51:33.370Z,13.8
2017-10-28T06:52:35.753Z,13.9
2017-10-28T06:53:38.169Z,13.8
2017-10-28T06:54:40.513Z,13.9
2017-10-28T06:55:42.886Z,13.9
2017-10-28T06:56:45.261Z,13.9
2017-10-28T06:57:47.653Z,13.8
2017-10-28T06:58:50.018Z,13.9
2017-10-28T06:59:52.407Z,13.9
2017-10-28T07:00:54.771Z,13.9
2017-10-28T07:01:57.157Z,13.8
2017-10-28T07:02:59.531Z,13.9
2017-10-28T07:04:01.922Z,13.9
2017-10-28T07:05:04.309Z,13.9
2017-10-28T07:06:06.681Z,13.8
2017-10-28T07:07:09.049Z,13.9
2017-10-28T07:08:11.429Z,13.9
2017-10-28T07:09:13.803Z,13.9
2017-10-28T07:10:16.187Z,13.9
2017-10-28T07:11:18.559Z,13.9
2017-10-28T07:12:20.928Z,13.9
2017-10-28T07:13:23.305Z,13.9
2017-10-28T07:14:26.059Z,13.9
2017-10-28T07:15:28.424Z,13.9
2017-10-28T07:16:30.799Z,13.9
2017-10-28T07:17:33.196Z,14
2017-10-28T07:18:35.560Z,14
2017-10-28T07:19:37.938Z,14
2017-10-28T07:20:40.312Z,14
2017-10-28T07:21:43.039Z,14
2017-10-28T07:22:45.418Z,14.1
2017-10-28T07:23:47.792Z,14.1
2017-10-28T07:24:50.162Z,14.1
2017-10-28T07:25:52.549Z,14.1
2017-10-28T07:26:55.306Z,14.1
2017-10-28T07:27:57.678Z,14.1
2017-10-28T07:29:00.059Z,14.1
2017-10-28T07:30:02.775Z,14
2017-10-28T07:31:05.154Z,14
2017-10-28T07:32:07.890Z,14.1
2017-10-28T07:33:10.263Z,14.1
2017-10-28T07:34:12.648Z,14.1
2017-10-28T07:35:15.014Z,14.1
2017-10-28T07:36:17.386Z,14.1
2017-10-28T07:37:20.153Z,14.1
2017-10-28T07:38:22.539Z,14.1
2017-10-28T07:39:24.918Z,14.1
2017-10-28T07:40:27.662Z,14.1
2017-10-28T07:41:30.033Z,14.1
2017-10-28T07:42:32.411Z,14.2
2017-10-28T07:43:34.791Z,14.2
2017-10-28T07:44:37.177Z,14.2
2017-10-28T07:45:39.551Z,14.2
2017-10-28T07:46:41.924Z,14.2
2017-10-28T07:47:44.296Z,14.2
2017-10-28T07:48:46.695Z,14.2
2017-10-28T07:50:40.422Z,14.3
2017-10-28T07:51:42.877Z,14.3
2017-10-28T07:52:45.319Z,14.3
2017-10-28T07:53:47.754Z,14.3
2017-10-28T07:54:50.184Z,14.3
2017-10-28T07:55:52.613Z,14.3
2017-10-28T07:56:55.042Z,14.3
2017-10-28T07:57:57.479Z,14.3
2017-10-28T07:59:00.264Z,14.3
2017-10-28T08:00:03.050Z,14.3
2017-10-28T08:01:05.472Z,14.3
2017-10-28T08:02:07.909Z,14.3
2017-10-28T08:03:10.336Z,14.4
2017-10-28T08:04:12.772Z,14.3
2017-10-28T08:05:15.205Z,14.3
2017-10-28T08:06:17.645Z,14.3
2017-10-28T08:07:20.057Z,14.3
2017-10-28T08:08:22.486Z,14.3
2017-10-28T08:09:24.910Z,14.3
2017-10-28T08:10:27.338Z,14.3
2017-10-28T08:11:29.761Z,14.3
2017-10-28T08:12:32.189Z,14.3
2017-10-28T08:13:34.611Z,14.3
2017-10-28T08:14:37.052Z,14.3
2017-10-28T08:15:39.479Z,14.3
2017-10-28T08:16:41.910Z,14.3
2017-10-28T08:17:44.338Z,14.4
2017-10-28T08:18:46.759Z,14.4
2017-10-28T08:19:49.198Z,14.4
2017-10-28T08:20:51.626Z,14.4
2017-10-28T08:21:54.048Z,14.4
2017-10-28T08:22:56.477Z,14.4
2017-10-28T08:23:59.277Z,14.4
2017-10-28T08:25:01.694Z,14.5
2017-10-28T08:26:04.134Z,14.5
2017-10-28T08:27:06.556Z,14.5
2017-10-28T08:28:08.987Z,14.5
2017-10-28T08:29:11.774Z,14.6
2017-10-28T08:30:14.550Z,14.6
2017-10-28T08:31:17.319Z,14.6
2017-10-28T08:32:19.751Z,14.7
2017-10-28T08:33:22.180Z,14.7
2017-10-28T08:34:24.607Z,14.7
2017-10-28T08:35:27.042Z,14.7
2017-10-28T08:36:29.465Z,14.8
2017-10-28T08:37:31.898Z,14.8
2017-10-28T08:38:34.322Z,14.8
2017-10-28T08:39:37.121Z,14.9
2017-10-28T08:40:39.538Z,14.9
2017-10-28T08:41:41.983Z,14.9
2017-10-28T08:42:45.115Z,15
2017-10-28T08:43:47.550Z,15
2017-10-28T08:44:49.980Z,15
2017-10-28T08:45:52.415Z,15.1
2017-10-28T08:46:54.862Z,15.1
2017-10-28T08:47:57.281Z,15.1
2017-10-28T08:49:00.071Z,15.2
2017-10-28T08:50:02.495Z,15.2
2017-10-28T08:51:04.929Z,15.3
2017-10-28T08:52:07.366Z,15.3
2017-10-28T08:53:09.785Z,15.3
2017-10-28T08:54:12.578Z,15.3
2017-10-28T08:55:15.168Z,15.3
2017-10-28T08:56:17.589Z,15.3
2017-10-28T08:57:20.028Z,15.3
2017-10-28T08:58:22.562Z,15.4
2017-10-28T08:59:24.992Z,15.4
2017-10-28T09:00:27.443Z,15.5
2017-10-28T09:01:29.877Z,15.5
2017-10-28T09:02:32.301Z,15.5
2017-10-28T09:03:34.942Z,15.5
2017-10-28T09:04:37.738Z,15.5
2017-10-28T09:05:40.352Z,15.4
2017-10-28T09:06:42.780Z,15.5
2017-10-28T09:07:45.297Z,15.5
2017-10-28T09:08:47.721Z,15.5
2017-10-28T09:09:50.158Z,15.5
2017-10-28T09:10:52.738Z,15.5
2017-10-28T09:11:55.160Z,15.6
2017-10-28T09:12:58.323Z,15.6
2017-10-28T09:14:00.766Z,15.6
2017-10-28T09:15:03.415Z,15.7
2017-10-28T09:16:05.844Z,15.7
2017-10-28T09:17:08.277Z,15.7
2017-10-28T09:18:10.708Z,15.8
2017-10-28T09:19:13.137Z,15.8
2017-10-28T09:20:15.565Z,15.8
2017-10-28T09:21:17.984Z,15.8
2017-10-28T09:22:20.419Z,15.8
2017-10-28T09:23:22.841Z,15.8
2017-10-28T09:24:25.268Z,15.8
2017-10-28T09:25:27.707Z,15.8
2017-10-28T09:26:30.151Z,15.9
2017-10-28T09:27:32.570Z,15.9
2017-10-28T09:28:35.006Z,15.9
2017-10-28T09:29:37.435Z,15.9
2017-10-28T09:30:39.868Z,15.8
2017-10-28T09:31:42.310Z,15.8
2017-10-28T09:32:45.082Z,15.8
2017-10-28T09:34:19.646Z,15.8
2017-10-28T09:35:22.084Z,15.8
2017-10-28T09:36:24.498Z,15.7
2017-10-28T09:37:26.920Z,15.7
2017-10-28T09:38:29.361Z,15.7
2017-10-28T09:39:31.775Z,15.6
2017-10-28T09:40:34.208Z,15.7
2017-10-28T09:41:36.638Z,15.6
2017-10-28T09:42:39.064Z,15.6
2017-10-28T09:43:41.497Z,15.6
2017-10-28T09:44:43.931Z,15.6
2017-10-28T09:45:46.357Z,15.6
2017-10-28T09:46:49.150Z,15.6
2017-10-28T09:47:51.566Z,15.6
2017-10-28T09:48:53.994Z,15.6
2017-10-28T09:49:56.434Z,15.6
2017-10-28T09:50:58.860Z,15.7
2017-10-28T09:52:01.292Z,15.7
2017-10-28T09:53:03.720Z,15.7
2017-10-28T09:54:06.137Z,15.7
2017-10-28T09:55:08.574Z,15.7
2017-10-28T09:56:11.007Z,15.7
2017-10-28T09:57:13.784Z,15.7
2017-10-28T09:58:16.222Z,15.7
2017-10-28T09:59:18.641Z,15.8
2017-10-28T10:00:21.077Z,15.7
2017-10-28T10:01:23.513Z,15.7
2017-10-28T10:02:25.949Z,15.7
2017-10-28T10:03:28.381Z,15.7
2017-10-28T10:04:30.803Z,15.7
2017-10-28T10:05:33.232Z,15.7
2017-10-28T10:06:35.672Z,15.7
2017-10-28T10:07:38.096Z,15.7
2017-10-28T10:08:41.240Z,15.7
2017-10-28T10:09:43.686Z,15.7
2017-10-28T10:10:46.085Z,15.7
2017-10-28T10:11:48.526Z,15.7
2017-10-28T10:12:50.955Z,15.7
2017-10-28T10:13:53.370Z,15.7
2017-10-28T10:14:56.151Z,15.7
2017-10-28T10:15:58.587Z,15.7
2017-10-28T10:17:01.019Z,15.7
2017-10-28T10:18:03.450Z,15.7
2017-10-28T10:19:05.873Z,15.7
2017-10-28T10:20:08.301Z,15.8
2017-10-28T10:21:10.738Z,15.8
2017-10-28T10:22:13.526Z,15.8
2017-10-28T10:23:15.958Z,15.8
2017-10-28T10:24:18.391Z,15.8
2017-10-28T10:25:20.825Z,15.9
2017-10-28T10:26:23.247Z,15.9
2017-10-28T10:27:25.682Z,15.9
2017-10-28T10:28:28.101Z,15.9
2017-10-28T10:29:30.533Z,15.9
2017-10-28T10:30:32.968Z,15.9
2017-10-28T10:31:35.398Z,15.9
2017-10-28T10:32:37.837Z,15.9
2017-10-28T10:33:40.269Z,15.9
2017-10-28T10:34:42.697Z,15.9
2017-10-28T10:35:45.115Z,15.9
2017-10-28T10:36:47.543Z,15.9
2017-10-28T10:37:49.982Z,15.9
2017-10-28T10:38:52.764Z,15.9
2017-10-28T10:39:55.197Z,15.8
2017-10-28T10:40:57.629Z,15.8
2017-10-28T10:42:00.417Z,15.8
2017-10-28T10:43:02.853Z,15.8
2017-10-28T10:44:05.281Z,15.8
2017-10-28T10:45:07.702Z,15.8
2017-10-28T10:46:10.135Z,15.8
2017-10-28T10:47:12.571Z,15.8
2017-10-28T10:48:15.354Z,15.8
2017-10-28T10:49:17.793Z,15.8
2017-10-28T10:50:20.213Z,15.8
2017-10-28T10:51:22.642Z,15.8
2017-10-28T10:52:25.075Z,15.8
2017-10-28T10:53:27.502Z,15.8
2017-10-28T10:54:29.932Z,15.9
2017-10-28T10:55:32.367Z,15.9
2017-10-28T10:56:34.790Z,15.9
2017-10-28T10:57:37.578Z,15.9
2017-10-28T10:58:40.010Z,16
2017-10-28T10:59:42.441Z,16
2017-10-28T11:00:44.875Z,16
2017-10-28T11:01:47.314Z,16
2017-10-28T11:02:49.736Z,16
2017-10-28T11:03:52.159Z,16
2017-10-28T11:04:54.591Z,16
2017-10-28T11:05:57.368Z,16
2017-10-28T11:07:00.150Z,16
2017-10-28T11:08:02.587Z,16
2017-10-28T11:09:05.011Z,16
2017-10-28T11:10:07.454Z,16
2017-10-28T11:11:10.232Z,16
2017-10-28T11:12:12.667Z,16
2017-10-28T11:13:15.092Z,16
2017-10-28T11:14:17.523Z,16
2017-10-28T11:15:19.947Z,16
2017-10-28T11:16:22.378Z,16
2017-10-28T11:17:24.801Z,16
2017-10-28T11:18:27.231Z,16.1
2017-10-28T11:19:29.658Z,16.1
2017-10-28T11:20:32.103Z,16.1
2017-10-28T11:21:34.518Z,16.1
2017-10-28T11:22:36.940Z,16.1
2017-10-28T11:23:39.734Z,16.1
2017-10-28T11:24:42.208Z,16.1
2017-10-28T11:25:45.167Z,16.1
2017-10-28T11:26:47.600Z,16.1
2017-10-28T11:27:50.133Z,16.1
2017-10-28T11:28:52.560Z,16.1
2017-10-28T11:29:55.001Z,16.1
2017-10-28T11:30:57.723Z,16.1
2017-10-28T11:32:00.509Z,16
2017-10-28T11:33:03.241Z,16
2017-10-28T11:34:05.669Z,16
2017-10-28T11:35:08.113Z,16
2017-10-28T11:36:10.530Z,15.9
2017-10-28T11:37:12.967Z,15.9
2017-10-28T11:38:15.400Z,15.9
2017-10-28T11:39:17.922Z,15.9
2017-10-28T11:40:20.486Z,15.9
2017-10-28T11:41:23.133Z,15.8
2017-10-28T11:42:25.672Z,15.8
2017-10-28T11:43:28.142Z,15.8
2017-10-28T11:44:30.687Z,15.9
2017-10-28T11:45:33.780Z,15.9
2017-10-28T11:46:36.377Z,15.9
2017-10-28T11:47:38.807Z,16
2017-10-28T11:48:41.237Z,16
2017-10-28T11:49:43.722Z,16
2017-10-28T11:50:46.161Z,16
2017-10-28T11:51:48.604Z,16
2017-10-28T11:52:51.041Z,16
2017-10-28T11:53:53.752Z,16
2017-10-28T11:54:56.175Z,16
2017-10-28T11:55:58.799Z,16
2017-10-28T11:57:01.217Z,16
2017-10-28T11:58:04.002Z,15.9
2017-10-28T11:59:06.785Z,16
2017-10-28T12:00:09.218Z,16
2017-10-28T12:01:11.634Z,16
2017-10-28T12:02:14.425Z,16
2017-10-28T12:03:16.855Z,16
2017-10-28T12:04:19.793Z,16.1
2017-10-28T12:05:22.225Z,16.1
2017-10-28T12:06:24.664Z,16.1
2017-10-28T12:07:28.867Z,16.2
2017-10-28T12:08:31.661Z,16.2
2017-10-28T12:09:34.910Z,16.2
2017-10-28T12:10:37.662Z,16.2
2017-10-28T12:11:40.511Z,16.2
2017-10-28T12:12:43.272Z,16.1
2017-10-28T12:13:46.181Z,16.1
2017-10-28T12:14:48.960Z,16.1
2017-10-28T12:15:51.924Z,16.1
2017-10-28T12:16:54.793Z,16
2017-10-28T12:17:57.562Z,16
2017-10-28T12:19:00.511Z,16
2017-10-28T12:20:03.241Z,15.9
2017-10-28T12:21:05.834Z,15.9
2017-10-28T12:22:08.264Z,15.9
2017-10-28T12:23:10.701Z,15.9
2017-10-28T12:24:13.303Z,16
2017-10-28T12:26:20.027Z,16
2017-10-28T12:27:22.865Z,15.9
2017-10-28T12:28:25.690Z,15.9
2017-10-28T12:29:28.419Z,16
2017-10-28T12:30:30.855Z,15.9
2017-10-28T12:31:33.283Z,15.9
2017-10-28T12:32:35.707Z,15.9
2017-10-28T12:33:38.149Z,15.9
2017-10-28T12:34:40.569Z,15.9
2017-10-28T12:35:42.991Z,15.9
2017-10-28T12:36:45.853Z,15.9
2017-10-28T12:37:48.300Z,15.9
2017-10-28T12:38:50.747Z,15.9
2017-10-28T12:39:53.213Z,15.9
2017-10-28T12:40:55.778Z,15.9
2017-10-28T12:41:58.246Z,15.9
2017-10-28T12:43:00.711Z,15.9
2017-10-28T12:44:03.290Z,15.8
2017-10-28T12:45:05.816Z,15.8
2017-10-28T12:46:08.316Z,15.8
2017-10-28T12:47:10.806Z,15.8
2017-10-28T12:48:13.242Z,15.8
2017-10-28T12:49:15.712Z,15.7
2017-10-28T12:50:18.256Z,15.7
2017-10-28T12:51:20.690Z,15.8
2017-10-28T12:52:23.515Z,15.8
2017-10-28T12:53:25.952Z,15.8
2017-10-28T12:54:28.381Z,15.7
2017-10-28T12:55:30.919Z,15.8
2017-10-28T12:56:33.348Z,15.7
2017-10-28T12:57:36.509Z,15.8
2017-10-28T12:58:39.309Z,15.8
2017-10-28T12:59:41.749Z,15.8
2017-10-28T13:00:44.185Z,15.8
2017-10-28T13:01:46.985Z,15.7
2017-10-28T13:02:49.421Z,15.8
2017-10-28T13:03:51.855Z,15.8
2017-10-28T13:04:54.305Z,15.8
2017-10-28T13:05:56.738Z,15.8
2017-10-28T13:06:59.183Z,15.8
2017-10-28T13:08:01.737Z,15.8
2017-10-28T13:09:04.168Z,15.8
2017-10-28T13:10:06.594Z,15.8
2017-10-28T13:11:09.036Z,15.8
2017-10-28T13:12:13.263Z,15.8
2017-10-28T13:13:15.694Z,15.8
2017-10-28T13:14:18.144Z,15.7
2017-10-28T13:15:20.561Z,15.7
2017-10-28T13:16:23.203Z,15.7
2017-10-28T13:17:25.643Z,15.7
2017-10-28T13:18:28.550Z,15.7
2017-10-28T13:19:31.215Z,15.7
2017-10-28T13:20:33.662Z,15.7
2017-10-28T13:21:36.101Z,15.7
2017-10-28T13:22:38.543Z,15.7
2017-10-28T13:23:40.972Z,15.8
2017-10-28T13:24:43.408Z,15.8
2017-10-28T13:25:45.848Z,15.8
2017-10-28T13:26:49.079Z,15.8
2017-10-28T13:27:51.500Z,15.8
2017-10-28T13:28:53.941Z,15.9
2017-10-28T13:29:56.372Z,15.9
2017-10-28T13:30:58.831Z,15.9
2017-10-28T13:32:01.249Z,16
2017-10-28T13:33:03.694Z,16
2017-10-28T13:34:06.634Z,16
2017-10-28T13:35:09.070Z,16
2017-10-28T13:36:11.504Z,16
2017-10-28T13:37:13.953Z,16
2017-10-28T13:38:16.376Z,16
2017-10-28T13:39:19.161Z,16
2017-10-28T13:40:21.593Z,16
2017-10-28T13:41:24.028Z,16
2017-10-28T13:42:26.464Z,16
2017-10-28T13:43:29.592Z,16
2017-10-28T13:44:32.015Z,16.1
2017-10-28T13:45:34.447Z,16.1
2017-10-28T13:46:36.883Z,16.1
2017-10-28T13:47:39.326Z,16.1
2017-10-28T13:48:42.206Z,16.1
2017-10-28T13:49:44.627Z,16.1
2017-10-28T13:50:47.471Z,16.1
2017-10-28T13:51:49.927Z,16.1
2017-10-28T13:52:52.374Z,16.1
2017-10-28T13:53:54.972Z,16.1
2017-10-28T13:54:57.396Z,16.1
2017-10-28T13:55:59.829Z,16.1
2017-10-28T13:57:02.323Z,16.1
2017-10-28T13:58:05.117Z,16.1
2017-10-28T13:59:07.540Z,16.1
2017-10-28T14:00:09.978Z,16.1
2017-10-28T14:01:12.423Z,16
2017-10-28T14:02:14.859Z,16.1